Time;durP1;ratioP1;P1;durP2;ratioP2;P2;SDS_P1;SDS_P2;PMS_P1;PMS_P2;Temp;Humidity;BMP_temperature;BMP_pressure;BME280_temperature;BME280_humidity;BME280_pressure;Samples;Min_cycle;Max_cycle;Signal;HPM_P1;HPM_P2
2021/07/27 00:01:59;;;;;;;6.23;5.73;;;24.00;99.90;;;;;;5105790;28;20494;-63
2021/07/27 00:04:26;;;;;;;7.10;6.50;;;24.00;99.90;;;;;;5103616;28;20843;-63
2021/07/27 00:06:53;;;;;;;5.63;5.13;;;23.90;99.90;;;;;;5098773;28;20460;-63
2021/07/27 00:09:20;;;;;;;6.63;6.00;;;23.90;99.90;;;;;;5104302;28;20999;-63
2021/07/27 00:11:48;;;;;;;6.00;5.60;;;23.90;99.90;;;;;;5110093;27;20531;-63
2021/07/27 00:14:15;;;;;;;6.67;6.07;;;23.90;99.90;;;;;;5110125;27;20485;-63
2021/07/27 00:16:42;;;;;;;6.77;5.97;;;23.80;99.90;;;;;;5116484;27;20468;-63
2021/07/27 00:19:09;;;;;;;6.83;6.33;;;23.80;99.90;;;;;;5102901;28;20469;-63
2021/07/27 00:21:36;;;;;;;6.20;5.70;;;23.80;99.90;;;;;;5116642;28;21031;-63
2021/07/27 00:24:03;;;;;;;6.87;6.30;;;23.80;99.90;;;;;;5103184;28;20582;-63
2021/07/27 00:26:30;;;;;;;6.40;5.90;;;23.80;99.90;;;;;;5109848;28;20461;-63
2021/07/27 00:28:58;;;;;;;6.40;6.00;;;23.80;99.90;;;;;;5108798;28;20977;-62
2021/07/27 00:31:27;;;;;;;6.97;6.37;;;23.80;99.90;;;;;;5102289;28;20537;-63
2021/07/27 00:33:54;;;;;;;6.77;6.10;;;23.80;99.90;;;;;;5102091;28;20970;-63
2021/07/27 00:36:21;;;;;;;6.30;5.83;;;23.70;99.90;;;;;;5108128;28;20469;-63
2021/07/27 00:38:48;;;;;;;6.50;5.90;;;23.70;99.90;;;;;;5108201;28;20460;-64
2021/07/27 00:41:16;;;;;;;6.63;6.03;;;23.70;99.90;;;;;;5111972;27;20529;-63
2021/07/27 00:43:43;;;;;;;6.83;6.10;;;23.70;99.90;;;;;;5115261;28;20544;-63
2021/07/27 00:46:11;;;;;;;6.40;5.90;;;23.70;99.90;;;;;;5102617;28;20480;-63
2021/07/27 00:48:38;;;;;;;6.83;6.23;;;23.70;99.90;;;;;;5102200;27;20474;-63
2021/07/27 00:51:05;;;;;;;6.60;6.10;;;23.60;99.90;;;;;;5107362;27;20466;-63
2021/07/27 00:53:32;;;;;;;6.93;6.33;;;23.60;99.90;;;;;;5109170;28;20468;-63
2021/07/27 00:55:59;;;;;;;8.00;6.97;;;23.60;99.90;;;;;;5103478;28;20553;-63
2021/07/27 00:58:26;;;;;;;8.13;7.33;;;23.60;99.90;;;;;;5100925;28;20482;-63
2021/07/27 01:00:53;;;;;;;6.27;5.77;;;23.50;99.90;;;;;;5107287;28;20475;-63
2021/07/27 01:03:21;;;;;;;7.13;6.53;;;23.50;99.90;;;;;;5108632;28;21302;-62
2021/07/27 01:05:48;;;;;;;6.10;5.63;;;23.50;99.90;;;;;;5104131;28;20530;-62
2021/07/27 01:08:15;;;;;;;7.43;6.13;;;23.50;99.90;;;;;;5101289;28;20470;-64
2021/07/27 01:10:42;;;;;;;7.13;6.43;;;23.50;99.90;;;;;;5106169;28;20477;-63
2021/07/27 01:13:09;;;;;;;6.80;6.20;;;23.40;99.90;;;;;;5110932;27;20543;-62
2021/07/27 01:15:36;;;;;;;6.67;6.07;;;23.40;99.90;;;;;;5115576;27;20460;-63
2021/07/27 01:18:06;;;;;;;7.00;6.40;;;23.40;99.90;;;;;;5114364;27;20506;-63
2021/07/27 01:20:52;;;;;;;8.00;7.27;;;23.40;99.90;;;;;;5113919;27;20464;-63
2021/07/27 01:37:38;;;;;;;7.97;7.27;;;23.20;99.90;;;;;;5098243;28;20471;-63
2021/07/27 01:40:07;;;;;;;9.00;7.60;;;23.20;99.90;;;;;;5105279;28;20465;-63
2021/07/27 01:42:39;;;;;;;7.93;7.33;;;23.20;99.90;;;;;;5101037;28;20463;-63
2021/07/27 01:45:22;;;;;;;7.80;7.10;;;23.20;99.90;;;;;;5102376;28;20548;-63
2021/07/27 01:47:49;;;;;;;7.80;7.20;;;23.10;99.90;;;;;;5102324;28;20472;-63
2021/07/27 01:50:17;;;;;;;7.43;6.87;;;23.20;99.90;;;;;;5114055;27;20514;-62
2021/07/27 01:52:48;;;;;;;8.97;7.90;;;23.20;99.90;;;;;;5114682;28;20868;-62
2021/07/27 01:55:20;;;;;;;7.67;6.90;;;23.10;99.90;;;;;;5100659;28;20461;-62
2021/07/27 01:57:47;;;;;;;7.63;6.93;;;23.10;99.90;;;;;;5113194;27;20492;-62
2021/07/27 02:00:14;;;;;;;7.40;6.80;;;23.10;99.90;;;;;;5112197;27;20473;-62
2021/07/27 02:02:42;;;;;;;8.83;7.93;;;23.10;99.90;;;;;;5114955;27;20521;-63
2021/07/27 02:05:11;;;;;;;7.03;6.60;;;23.10;99.90;;;;;;5114227;27;20856;-63
2021/07/27 02:07:38;;;;;;;7.60;7.00;;;23.10;99.90;;;;;;5114520;27;20487;-63
2021/07/27 02:10:10;;;;;;;9.00;7.37;;;23.10;99.90;;;;;;5113781;27;21051;-63
2021/07/27 02:12:50;;;;;;;7.10;6.47;;;23.00;99.90;;;;;;5112666;27;20483;-63
2021/07/27 02:15:20;;;;;;;7.70;7.10;;;23.10;99.90;;;;;;5112160;27;20468;-62
2021/07/27 02:17:47;;;;;;;7.10;6.50;;;23.10;99.90;;;;;;5112516;27;20464;-64
2021/07/27 02:20:14;;;;;;;7.47;6.87;;;23.00;99.90;;;;;;5112128;27;20802;-62
2021/07/27 02:22:41;;;;;;;6.93;6.30;;;23.10;99.90;;;;;;5112427;27;20978;-63
2021/07/27 02:25:10;;;;;;;7.23;6.57;;;23.00;99.90;;;;;;5113171;27;20847;-62
2021/07/27 02:27:38;;;;;;;7.17;6.57;;;23.10;99.90;;;;;;5114333;27;20857;-63
2021/07/27 02:30:06;;;;;;;7.47;6.87;;;23.10;99.90;;;;;;5113698;27;20465;-63
2021/07/27 02:32:34;;;;;;;7.97;7.37;;;23.10;99.90;;;;;;5113723;27;20461;-63
2021/07/27 02:35:01;;;;;;;7.60;7.00;;;23.00;99.90;;;;;;5114079;27;20540;-63
2021/07/27 02:37:30;;;;;;;7.63;7.13;;;23.00;99.90;;;;;;5113348;27;20456;-63
2021/07/27 02:39:57;;;;;;;7.33;6.73;;;23.10;99.90;;;;;;5114088;27;20497;-62
2021/07/27 02:42:24;;;;;;;7.10;6.50;;;23.00;99.90;;;;;;5113644;27;20469;-62
2021/07/27 02:44:52;;;;;;;7.67;6.90;;;23.10;99.90;;;;;;5113940;27;20461;-62
2021/07/27 02:47:20;;;;;;;7.20;6.70;;;23.10;99.90;;;;;;5113241;27;20476;-62
2021/07/27 02:49:46;;;;;;;7.93;7.23;;;23.10;99.90;;;;;;5113853;27;20468;-62
2021/07/27 02:52:14;;;;;;;7.73;7.23;;;23.10;99.90;;;;;;5113069;27;20472;-63
2021/07/27 02:54:41;;;;;;;8.23;7.43;;;23.00;99.90;;;;;;5113623;27;20853;-63
2021/07/27 02:57:08;;;;;;;7.13;6.43;;;23.10;99.90;;;;;;5113550;27;20517;-62
2021/07/27 02:59:35;;;;;;;7.60;6.90;;;23.10;99.90;;;;;;5113565;27;20856;-63
2021/07/27 03:02:03;;;;;;;7.40;6.77;;;23.10;99.90;;;;;;5113702;27;20537;-63
2021/07/27 03:04:30;;;;;;;8.07;7.27;;;23.10;99.90;;;;;;5113167;27;20480;-62
2021/07/27 03:06:57;;;;;;;7.57;6.90;;;23.00;99.90;;;;;;5113521;27;21023;-63
2021/07/27 03:09:26;;;;;;;7.77;7.13;;;23.00;99.90;;;;;;5113183;27;20468;-63
2021/07/27 03:11:53;;;;;;;7.37;6.47;;;23.00;99.90;;;;;;5113492;27;20465;-61
2021/07/27 03:14:20;;;;;;;7.50;6.90;;;23.00;99.90;;;;;;5113043;27;20468;-62
2021/07/27 03:16:47;;;;;;;7.83;6.93;;;23.00;99.90;;;;;;5113596;27;20468;-62
2021/07/27 03:19:16;;;;;;;6.87;6.37;;;23.00;99.90;;;;;;5112944;27;20549;-63
2021/07/27 03:21:43;;;;;;;7.77;7.17;;;23.00;99.90;;;;;;5113311;27;20461;-63
2021/07/27 03:24:10;;;;;;;7.83;7.03;;;23.00;99.90;;;;;;5113000;27;20521;-62
2021/07/27 03:26:37;;;;;;;8.50;7.63;;;23.00;99.90;;;;;;5113188;27;20522;-63
2021/07/27 03:29:04;;;;;;;7.23;6.63;;;22.90;99.90;;;;;;5113189;27;20476;-63
2021/07/27 03:31:31;;;;;;;8.57;7.80;;;22.90;99.90;;;;;;5112871;27;20474;-63
2021/07/27 03:34:00;;;;;;;8.30;7.50;;;22.90;99.90;;;;;;5113426;27;20472;-63
2021/07/27 03:36:28;;;;;;;7.73;7.03;;;22.90;99.90;;;;;;5112677;27;20472;-63
2021/07/27 03:38:56;;;;;;;9.30;8.43;;;22.90;99.90;;;;;;5113196;27;21023;-62
2021/07/27 03:41:24;;;;;;;8.97;8.07;;;22.90;99.90;;;;;;5112668;27;20701;-62
2021/07/27 03:43:51;;;;;;;9.97;9.03;;;22.90;99.90;;;;;;5115192;27;20464;-63
2021/07/27 03:46:17;;;;;;;11.40;10.50;;;22.90;99.90;;;;;;5116901;27;20787;-63
2021/07/27 03:48:45;;;;;;;9.73;8.93;;;22.90;99.90;;;;;;5117117;27;20543;-63
2021/07/27 03:51:13;;;;;;;8.50;7.80;;;22.90;99.90;;;;;;5116772;27;20541;-63
2021/07/27 03:53:42;;;;;;;7.20;6.60;;;22.90;99.90;;;;;;5117097;27;20464;-63
2021/07/27 03:56:12;;;;;;;7.00;6.50;;;22.90;99.90;;;;;;5117225;27;20558;-63
2021/07/27 03:58:42;;;;;;;7.60;7.00;;;22.90;99.90;;;;;;5116741;27;20456;-63
2021/07/27 04:01:10;;;;;;;7.70;7.03;;;22.80;99.90;;;;;;5117152;27;20468;-63
2021/07/27 04:03:37;;;;;;;7.80;7.10;;;22.90;99.90;;;;;;5116527;27;20460;-63
2021/07/27 04:06:03;;;;;;;6.63;6.13;;;22.90;99.90;;;;;;5116912;27;20832;-63
2021/07/27 04:08:30;;;;;;;7.10;6.60;;;22.90;99.90;;;;;;5116537;27;20525;-63
2021/07/27 04:11:02;;;;;;;7.70;6.97;;;22.80;99.90;;;;;;5116849;27;20529;-63
2021/07/27 04:13:31;;;;;;;7.10;6.43;;;22.90;99.90;;;;;;5116556;27;20533;-63
2021/07/27 04:16:00;;;;;;;7.83;7.27;;;22.90;99.90;;;;;;5116779;27;20461;-63
2021/07/27 04:18:27;;;;;;;7.93;7.27;;;22.90;99.90;;;;;;5116214;27;20560;-63
2021/07/27 04:20:55;;;;;;;7.63;6.93;;;22.90;99.90;;;;;;5116558;27;20468;-63
2021/07/27 04:23:22;;;;;;;8.37;7.07;;;22.90;99.90;;;;;;5116227;27;20857;-63
2021/07/27 04:25:49;;;;;;;8.40;7.80;;;22.90;99.90;;;;;;5116434;27;20478;-62
2021/07/27 04:28:18;;;;;;;8.13;7.43;;;22.90;99.90;;;;;;5115831;27;20852;-62
2021/07/27 04:30:44;;;;;;;9.60;8.57;;;22.90;99.90;;;;;;5116363;27;20517;-64
2021/07/27 04:33:11;;;;;;;8.53;7.83;;;22.90;99.90;;;;;;5116320;27;20958;-63
2021/07/27 04:35:38;;;;;;;7.47;6.87;;;23.00;99.90;;;;;;5115835;27;20460;-63
2021/07/27 04:38:05;;;;;;;7.43;6.83;;;23.00;99.90;;;;;;5116127;27;20464;-62
2021/07/27 04:40:32;;;;;;;7.90;7.17;;;23.00;99.90;;;;;;5115903;27;20868;-62
2021/07/27 04:43:00;;;;;;;7.90;6.90;;;23.00;99.90;;;;;;5116414;27;20461;-62
2021/07/27 04:45:28;;;;;;;7.47;6.67;;;23.00;99.90;;;;;;5115696;27;20543;-62
2021/07/27 04:47:55;;;;;;;8.53;7.73;;;23.00;99.90;;;;;;5115997;27;20860;-62
2021/07/27 04:50:23;;;;;;;8.63;7.83;;;23.10;99.90;;;;;;5115761;27;20502;-63
2021/07/27 04:52:52;;;;;;;8.93;8.00;;;23.10;99.90;;;;;;5116071;27;20517;-63
2021/07/27 04:55:19;;;;;;;7.83;7.20;;;23.10;99.90;;;;;;5115428;27;20540;-63
2021/07/27 04:57:46;;;;;;;7.57;6.93;;;23.20;99.90;;;;;;5116147;27;20513;-63
2021/07/27 05:00:24;;;;;;;8.40;7.60;;;23.10;99.90;;;;;;5115884;27;20464;-63
2021/07/27 05:02:53;;;;;;;7.90;7.20;;;23.20;99.90;;;;;;5115684;27;21553;-63
2021/07/27 05:05:20;;;;;;;10.50;6.60;;;23.20;99.90;;;;;;5115860;27;20471;-63
2021/07/27 05:07:47;;;;;;;7.40;6.80;;;23.20;99.90;;;;;;5115242;27;21085;-63
2021/07/27 05:10:15;;;;;;;6.33;5.83;;;23.30;99.90;;;;;;5115960;27;20472;-62
2021/07/27 05:12:42;;;;;;;7.10;6.50;;;23.30;99.90;;;;;;5115385;27;20533;-63
2021/07/27 05:15:09;;;;;;;7.23;6.53;;;23.30;99.90;;;;;;5115914;27;20472;-62
2021/07/27 05:17:36;;;;;;;7.10;6.50;;;23.30;99.90;;;;;;5115092;27;20472;-63
2021/07/27 05:20:06;;;;;;;7.20;6.60;;;23.40;99.90;;;;;;5115733;27;20876;-62
2021/07/27 05:22:33;;;;;;;6.97;6.40;;;23.40;99.90;;;;;;5115123;27;20962;-62
2021/07/27 05:25:00;;;;;;;7.10;6.30;;;23.50;99.90;;;;;;5115525;27;20521;-63
2021/07/27 05:27:27;;;;;;;8.93;7.37;;;23.50;99.90;;;;;;5115212;27;20661;-63
2021/07/27 05:29:55;;;;;;;6.63;6.03;;;23.50;99.90;;;;;;5115220;27;21280;-63
2021/07/27 05:32:23;;;;;;;17.30;7.13;;;23.50;99.90;;;;;;5115558;27;20476;-63
2021/07/27 05:34:50;;;;;;;6.50;6.00;;;23.60;99.90;;;;;;5114893;27;20448;-63
2021/07/27 05:37:18;;;;;;;7.20;6.50;;;23.60;99.90;;;;;;5114908;27;20534;-63
2021/07/27 05:39:45;;;;;;;6.60;6.10;;;23.70;99.90;;;;;;5114728;27;20546;-63
2021/07/27 05:42:12;;;;;;;6.63;6.13;;;23.70;99.90;;;;;;5115413;27;20518;-62
2021/07/27 05:44:39;;;;;;;7.67;5.70;;;23.70;99.90;;;;;;5114763;27;20464;-62
2021/07/27 05:47:06;;;;;;;7.10;6.50;;;23.80;99.90;;;;;;5114923;27;20472;-63
2021/07/27 05:49:36;;;;;;;7.37;6.70;;;23.80;99.90;;;;;;5114609;27;20487;-63
2021/07/27 05:52:04;;;;;;;8.07;7.27;;;23.90;99.90;;;;;;5115106;27;20805;-63
2021/07/27 05:54:32;;;;;;;9.53;7.07;;;23.90;99.90;;;;;;5114935;27;20465;-63
2021/07/27 05:56:59;;;;;;;8.10;7.40;;;24.00;99.90;;;;;;5114645;27;20465;-63
2021/07/27 05:59:26;;;;;;;6.90;6.10;;;24.00;99.90;;;;;;5114598;27;20555;-63
2021/07/27 06:01:55;;;;;;;8.43;6.90;;;24.10;99.90;;;;;;5114297;27;20537;-63
2021/07/27 06:04:22;;;;;;;8.57;6.17;;;24.20;99.90;;;;;;5114769;27;20521;-63
2021/07/27 06:06:49;;;;;;;7.37;6.80;;;24.20;99.90;;;;;;5113452;27;20657;-63
2021/07/27 06:09:16;;;;;;;8.63;6.90;;;24.20;99.90;;;;;;5114555;27;20954;-63
2021/07/27 06:11:44;;;;;;;14.17;6.87;;;24.30;99.90;;;;;;5114308;27;20797;-63
2021/07/27 06:14:11;;;;;;;7.07;6.30;;;24.40;99.90;;;;;;5114438;27;20465;-63
2021/07/27 06:16:39;;;;;;;7.13;6.50;;;24.50;99.90;;;;;;5113976;27;20457;-63
2021/07/27 06:19:06;;;;;;;6.90;5.03;;;24.50;99.90;;;;;;5114662;27;20533;-62
2021/07/27 06:21:34;;;;;;;7.50;6.77;;;24.60;99.90;;;;;;5114343;27;20525;-63
2021/07/27 06:24:00;;;;;;;5.80;5.30;;;24.60;99.90;;;;;;5113828;27;20464;-63
2021/07/27 06:26:28;;;;;;;7.00;6.40;;;24.70;99.90;;;;;;5114272;27;20469;-63
2021/07/27 06:28:56;;;;;;;7.93;6.37;;;24.80;99.90;;;;;;5113744;27;20464;-63
2021/07/27 06:31:23;;;;;;;5.83;5.33;;;24.90;99.90;;;;;;5114092;27;20464;-63
2021/07/27 06:33:51;;;;;;;5.27;4.77;;;24.90;99.90;;;;;;5113944;27;20547;-64
2021/07/27 06:36:17;;;;;;;5.20;4.70;;;25.00;99.90;;;;;;5114092;27;20464;-63
2021/07/27 06:38:44;;;;;;;6.47;5.97;;;25.00;99.90;;;;;;5113425;27;20480;-63
2021/07/27 06:41:12;;;;;;;8.00;5.60;;;25.20;99.90;;;;;;5113991;27;20529;-63
2021/07/27 06:43:40;;;;;;;5.17;4.77;;;25.30;99.90;;;;;;5113490;27;20842;-62
2021/07/27 06:46:10;;;;;;;6.33;5.70;;;25.40;99.90;;;;;;5113678;27;20517;-63
2021/07/27 06:48:37;;;;;;;5.80;5.30;;;25.50;99.90;;;;;;5113775;27;21134;-62
2021/07/27 06:51:11;;;;;;;6.63;6.10;;;25.60;99.90;;;;;;5113586;27;21198;-63
2021/07/27 06:53:39;;;;;;;5.67;5.17;;;25.80;99.90;;;;;;5113868;27;20844;-63
2021/07/27 06:56:07;;;;;;;4.87;4.47;;;25.90;99.90;;;;;;5113727;27;21256;-63
2021/07/27 06:58:35;;;;;;;6.07;5.57;;;26.10;99.90;;;;;;5113572;27;20563;-63
2021/07/27 07:01:02;;;;;;;7.47;4.60;;;26.30;99.90;;;;;;5113176;27;20555;-63
2021/07/27 07:03:31;;;;;;;5.37;4.87;;;26.40;99.90;;;;;;5113720;27;20957;-63
2021/07/27 07:05:58;;;;;;;6.03;5.53;;;26.60;99.90;;;;;;5113325;27;20465;-62
2021/07/27 07:08:25;;;;;;;5.03;4.63;;;26.70;99.70;;;;;;5113306;27;20464;-63
2021/07/27 07:10:57;;;;;;;4.60;4.30;;;26.90;99.50;;;;;;5113210;27;20465;-63
2021/07/27 07:13:24;;;;;;;4.53;4.13;;;27.00;99.10;;;;;;5113415;27;20544;-63
2021/07/27 07:15:51;;;;;;;4.70;4.30;;;27.10;98.90;;;;;;5112935;27;20460;-62
2021/07/27 07:18:18;;;;;;;5.00;4.37;;;27.20;98.30;;;;;;5113376;27;20460;-64
2021/07/27 07:20:46;;;;;;;5.53;4.87;;;27.30;98.10;;;;;;5113062;27;20514;-62
2021/07/27 07:23:13;;;;;;;4.60;4.20;;;27.30;97.60;;;;;;5113007;27;20460;-63
2021/07/27 07:25:42;;;;;;;5.07;4.67;;;27.30;97.40;;;;;;5113687;27;20469;-62
2021/07/27 07:28:11;;;;;;;4.70;4.10;;;27.40;97.20;;;;;;5112781;27;20456;-63
2021/07/27 07:30:39;;;;;;;4.07;3.77;;;27.50;96.50;;;;;;5113182;27;20539;-63
2021/07/27 07:33:06;;;;;;;7.20;4.33;;;27.60;96.60;;;;;;5112942;27;20456;-63
2021/07/27 07:35:34;;;;;;;4.30;4.00;;;27.70;96.10;;;;;;5113212;27;20469;-62
2021/07/27 07:38:02;;;;;;;4.60;4.20;;;27.80;96.20;;;;;;5112606;27;20464;-63
2021/07/27 07:40:29;;;;;;;6.50;4.87;;;27.90;96.10;;;;;;5113162;27;20970;-63
2021/07/27 07:42:58;;;;;;;4.83;4.40;;;28.00;95.30;;;;;;5112592;27;20480;-62
2021/07/27 07:45:26;;;;;;;6.43;5.60;;;28.20;95.20;;;;;;5113033;27;20548;-62
2021/07/27 07:47:53;;;;;;;7.40;6.70;;;28.30;94.90;;;;;;5112396;27;20664;-62
2021/07/27 07:50:20;;;;;;;5.57;5.07;;;28.40;94.70;;;;;;5112990;27;20957;-63
2021/07/27 07:52:47;;;;;;;6.47;5.13;;;28.50;94.30;;;;;;5112757;27;20848;-63
2021/07/27 07:55:15;;;;;;;4.83;4.40;;;28.60;94.10;;;;;;5113064;27;20528;-62
2021/07/27 07:57:42;;;;;;;6.00;5.50;;;28.70;93.90;;;;;;5112932;27;20468;-63
2021/07/27 08:00:10;;;;;;;5.20;4.80;;;28.80;93.50;;;;;;5112640;27;20459;-63
2021/07/27 08:02:36;;;;;;;7.83;6.87;;;28.80;93.10;;;;;;5113088;27;20460;-64
2021/07/27 08:05:04;;;;;;;6.40;5.70;;;28.90;93.00;;;;;;5112428;27;20488;-63
2021/07/27 08:07:30;;;;;;;5.70;4.70;;;28.90;93.00;;;;;;5112905;27;20984;-63
2021/07/27 08:09:57;;;;;;;6.67;6.10;;;28.90;92.90;;;;;;5112394;27;20557;-64
2021/07/27 08:12:26;;;;;;;4.80;4.50;;;29.00;92.90;;;;;;5112917;27;20464;-64
2021/07/27 08:14:52;;;;;;;7.53;6.87;;;29.00;92.40;;;;;;5112414;27;20962;-64
2021/07/27 08:17:19;;;;;;;7.30;6.63;;;29.00;92.40;;;;;;5112761;27;20525;-63
2021/07/27 08:19:46;;;;;;;6.53;6.03;;;29.00;92.40;;;;;;5112890;27;20469;-62
2021/07/27 08:22:13;;;;;;;4.97;4.33;;;29.10;92.60;;;;;;5112571;27;20651;-63
2021/07/27 08:24:40;;;;;;;8.20;5.00;;;29.10;92.50;;;;;;5112613;27;20472;-62
2021/07/27 08:27:09;;;;;;;6.10;5.50;;;29.20;92.70;;;;;;5112467;27;20561;-62
2021/07/27 08:29:38;;;;;;;4.67;4.27;;;29.20;92.60;;;;;;5114290;27;20567;-62
2021/07/27 08:32:08;;;;;;;6.90;6.20;;;29.20;91.70;;;;;;5116219;27;20795;-62
2021/07/27 08:34:36;;;;;;;5.33;4.93;;;29.30;91.80;;;;;;5116481;27;21072;-62
2021/07/27 08:37:04;;;;;;;5.00;4.60;;;29.30;91.70;;;;;;5116185;27;20464;-62
2021/07/27 08:39:31;;;;;;;4.70;4.13;;;29.30;91.10;;;;;;5116174;27;20472;-63
2021/07/27 08:42:01;;;;;;;4.47;4.07;;;29.30;91.10;;;;;;5116109;27;20547;-63
2021/07/27 08:44:31;;;;;;;4.10;3.73;;;29.30;90.90;;;;;;5116391;27;20465;-63
2021/07/27 08:47:00;;;;;;;5.27;4.87;;;29.30;91.40;;;;;;5115637;27;20547;-63
2021/07/27 08:49:29;;;;;;;6.30;5.70;;;29.40;90.10;;;;;;5116187;27;21007;-63
2021/07/27 08:51:57;;;;;;;4.90;4.10;;;29.30;90.00;;;;;;5115760;27;20472;-62
2021/07/27 08:54:24;;;;;;;4.37;3.97;;;29.30;89.10;;;;;;5116073;27;20464;-63
2021/07/27 08:56:52;;;;;;;4.07;3.77;;;29.30;89.00;;;;;;5115776;27;20864;-61
2021/07/27 08:59:21;;;;;;;3.87;3.40;;;29.30;88.60;;;;;;5113149;27;20557;-63
2021/07/27 09:01:48;;;;;;;5.03;4.00;;;29.30;89.00;;;;;;5095690;28;20559;-63
2021/07/27 09:04:16;;;;;;;3.50;3.20;;;29.20;89.30;;;;;;5100504;27;20513;-63
2021/07/27 09:06:43;;;;;;;3.57;3.23;;;29.20;89.40;;;;;;5116010;27;20865;-63
2021/07/27 09:09:15;;;;;;;4.40;3.73;;;29.20;90.00;;;;;;5115148;27;20530;-63
2021/07/27 09:11:46;;;;;;;3.50;3.30;;;29.20;89.80;;;;;;5115833;27;20486;-63
2021/07/27 09:14:15;;;;;;;4.93;3.50;;;29.20;88.80;;;;;;5115351;27;21021;-63
2021/07/27 09:16:46;;;;;;;4.03;3.73;;;29.10;89.30;;;;;;5115808;27;20488;-63
2021/07/27 09:19:17;;;;;;;7.50;4.80;;;29.10;89.80;;;;;;5115198;27;20969;-63
2021/07/27 09:21:46;;;;;;;6.60;4.13;;;29.00;90.30;;;;;;5115531;27;20471;-63
2021/07/27 09:24:28;;;;;;;4.47;4.17;;;29.00;90.00;;;;;;5115055;27;20491;-64
2021/07/27 09:26:56;;;;;;;4.00;3.70;;;29.00;89.00;;;;;;5115302;27;20460;-63
2021/07/27 09:29:27;;;;;;;4.60;4.20;;;29.00;87.30;;;;;;5115580;27;20465;-62
2021/07/27 09:31:55;;;;;;;4.17;3.77;;;29.10;85.70;;;;;;5114796;27;20970;-63
2021/07/27 09:34:24;;;;;;;4.70;4.30;;;29.00;85.50;;;;;;5115343;27;21121;-63
2021/07/27 09:37:02;;;;;;;4.67;3.70;;;29.00;85.00;;;;;;5115116;27;20547;-63
2021/07/27 09:39:29;;;;;;;4.33;4.00;;;29.00;85.20;;;;;;5115562;27;20515;-62
2021/07/27 09:42:04;;;;;;;4.60;4.20;;;28.90;86.00;;;;;;5113730;27;20457;-63
2021/07/27 09:44:32;;;;;;;7.00;6.30;;;28.90;85.60;;;;;;5115205;27;20499;-63
2021/07/27 09:47:01;;;;;;;5.37;3.70;;;28.90;86.40;;;;;;5113597;27;21255;-62
2021/07/27 09:49:28;;;;;;;4.23;3.90;;;29.00;86.10;;;;;;5114020;27;20950;-62
2021/07/27 09:51:57;;;;;;;5.73;5.27;;;28.90;86.10;;;;;;5113960;27;20506;-62
2021/07/27 09:54:27;;;;;;;5.20;3.80;;;28.90;86.50;;;;;;5114498;27;20469;-63
2021/07/27 09:56:54;;;;;;;4.00;3.70;;;28.90;86.00;;;;;;5114235;27;20517;-62
2021/07/27 09:59:23;;;;;;;5.67;5.17;;;28.90;86.60;;;;;;5114803;27;20464;-63
2021/07/27 10:01:54;;;;;;;4.83;4.43;;;29.00;86.60;;;;;;5114574;27;21015;-62
2021/07/27 10:04:25;;;;;;;4.53;4.13;;;29.00;86.20;;;;;;5114695;27;20465;-62
2021/07/27 10:06:53;;;;;;;5.87;5.47;;;28.90;86.80;;;;;;5114311;27;20527;-62
2021/07/27 10:09:25;;;;;;;4.87;4.50;;;28.90;87.40;;;;;;5114388;27;20461;-62
2021/07/27 10:11:53;;;;;;;8.17;6.03;;;28.80;88.60;;;;;;5114152;27;20472;-63
2021/07/27 10:14:20;;;;;;;6.07;5.50;;;28.80;91.00;;;;;;5114744;27;20541;-63
2021/07/27 10:16:48;;;;;;;5.83;5.43;;;28.70;92.80;;;;;;5113910;27;20465;-62
2021/07/27 10:19:21;;;;;;;5.20;4.70;;;28.50;94.10;;;;;;5114427;27;20537;-62
2021/07/27 10:22:01;;;;;;;5.03;4.63;;;28.40;95.10;;;;;;5113986;27;20749;-62
2021/07/27 10:24:37;;;;;;;4.67;4.27;;;28.30;95.80;;;;;;5113212;27;20990;-63
2021/07/27 10:27:07;;;;;;;4.53;4.23;;;28.20;95.30;;;;;;5113956;27;20460;-62
2021/07/27 10:29:35;;;;;;;4.40;4.00;;;28.10;95.10;;;;;;5114176;27;20547;-62
2021/07/27 10:32:12;;;;;;;4.87;4.47;;;28.10;95.70;;;;;;5114015;27;20514;-62
2021/07/27 10:34:41;;;;;;;5.37;4.97;;;28.00;95.70;;;;;;5114415;27;20548;-61
2021/07/27 10:37:08;;;;;;;4.23;3.93;;;27.90;95.60;;;;;;5113684;27;20453;-63
2021/07/27 10:39:47;;;;;;;5.00;4.60;;;27.80;95.70;;;;;;5113949;27;20461;-63
2021/07/27 10:42:14;;;;;;;4.60;4.30;;;27.80;95.80;;;;;;5113483;27;20471;-63
2021/07/27 10:44:41;;;;;;;4.70;4.30;;;27.70;95.90;;;;;;5114073;27;20522;-63
2021/07/27 10:47:08;;;;;;;5.80;5.23;;;27.70;95.80;;;;;;5113378;27;20533;-63
2021/07/27 10:49:35;;;;;;;4.10;3.70;;;27.70;95.30;;;;;;5113938;27;20472;-63
2021/07/27 10:52:03;;;;;;;4.20;3.90;;;27.80;94.60;;;;;;5113154;27;20464;-62
2021/07/27 10:54:32;;;;;;;5.83;5.20;;;27.80;94.50;;;;;;5113886;27;20464;-61
2021/07/27 10:57:03;;;;;;;6.87;5.37;;;27.80;95.00;;;;;;5113376;27;20958;-62
2021/07/27 10:59:32;;;;;;;4.93;4.53;;;27.80;95.40;;;;;;5113778;27;20525;-63
2021/07/27 11:02:00;;;;;;;5.03;4.40;;;27.80;95.20;;;;;;5113357;27;20555;-63
2021/07/27 11:04:28;;;;;;;4.70;4.30;;;27.80;92.80;;;;;;5113585;27;21035;-63
2021/07/27 11:06:57;;;;;;;4.13;3.83;;;27.80;93.00;;;;;;5113381;27;20606;-63
2021/07/27 11:09:24;;;;;;;4.50;4.20;;;27.90;93.20;;;;;;5113473;27;20487;-62
2021/07/27 11:11:51;;;;;;;4.17;3.83;;;28.00;91.90;;;;;;5113007;27;20465;-63
2021/07/27 11:14:25;;;;;;;4.23;3.93;;;28.00;91.80;;;;;;5113469;27;20856;-62
2021/07/27 11:16:52;;;;;;;5.27;4.87;;;28.00;91.40;;;;;;5113061;27;20509;-62
2021/07/27 11:19:26;;;;;;;4.60;4.30;;;28.10;91.20;;;;;;5113304;27;20539;-62
2021/07/27 11:21:54;;;;;;;4.77;4.43;;;28.10;91.70;;;;;;5113037;27;20471;-62
2021/07/27 11:24:22;;;;;;;5.33;4.30;;;28.20;91.90;;;;;;5113190;27;20468;-63
2021/07/27 11:26:51;;;;;;;4.77;4.37;;;28.20;91.20;;;;;;5113339;27;20530;-61
2021/07/27 11:29:19;;;;;;;4.10;3.73;;;28.20;91.30;;;;;;5113117;27;20843;-62
2021/07/27 11:31:48;;;;;;;4.20;3.80;;;28.20;91.30;;;;;;5113297;27;20543;-62
2021/07/27 11:34:26;;;;;;;5.33;4.83;;;28.20;90.10;;;;;;5112726;27;20460;-62
2021/07/27 11:36:54;;;;;;;4.87;4.47;;;28.20;88.90;;;;;;5113009;27;20576;-63
2021/07/27 11:39:21;;;;;;;4.63;4.20;;;28.20;89.50;;;;;;5112969;27;21276;-63
2021/07/27 11:41:59;;;;;;;4.23;3.93;;;28.30;89.60;;;;;;5108734;27;20481;-62
2021/07/27 11:44:26;;;;;;;4.07;3.63;;;28.30;90.50;;;;;;5107845;27;20471;-63
2021/07/27 11:46:54;;;;;;;3.40;3.20;;;28.40;90.50;;;;;;5119611;27;20547;-62
2021/07/27 11:49:21;;;;;;;4.03;3.73;;;28.40;89.70;;;;;;5112534;27;20830;-62
2021/07/27 11:51:48;;;;;;;6.70;4.73;;;28.50;88.20;;;;;;5093768;28;20530;-62
2021/07/27 11:54:25;;;;;;;7.23;6.50;;;28.50;88.40;;;;;;5092244;28;20461;-62
2021/07/27 11:56:52;;;;;;;8.33;7.13;;;28.60;88.40;;;;;;5092776;28;20963;-63
2021/07/27 11:59:25;;;;;;;6.30;5.70;;;28.60;88.00;;;;;;5102644;27;20560;-63
2021/07/27 12:01:54;;;;;;;5.70;5.20;;;28.50;86.70;;;;;;5112988;27;20643;-63
2021/07/27 12:04:21;;;;;;;6.10;5.50;;;28.60;87.60;;;;;;5113927;27;20497;-61
2021/07/27 12:06:49;;;;;;;4.57;4.17;;;28.70;88.00;;;;;;5117153;27;20480;-62
2021/07/27 12:09:15;;;;;;;5.43;4.93;;;28.70;86.90;;;;;;5116349;27;20521;-62
2021/07/27 12:11:43;;;;;;;4.33;4.00;;;28.70;86.90;;;;;;5117174;27;20776;-62
2021/07/27 12:14:10;;;;;;;5.20;4.80;;;28.70;85.60;;;;;;5116531;27;20954;-63
2021/07/27 12:16:37;;;;;;;5.83;5.27;;;28.80;86.80;;;;;;5104201;27;20508;-62
2021/07/27 12:19:06;;;;;;;4.40;4.00;;;28.80;86.80;;;;;;5096310;28;20879;-61
2021/07/27 12:21:33;;;;;;;6.07;5.47;;;28.90;84.30;;;;;;5096200;28;20461;-62
2021/07/27 12:24:00;;;;;;;4.50;4.20;;;29.00;85.10;;;;;;5096402;28;20531;-62
2021/07/27 12:26:27;;;;;;;5.20;4.80;;;29.00;82.80;;;;;;5095941;28;20834;-62
2021/07/27 12:28:53;;;;;;;6.80;6.30;;;29.00;84.10;;;;;;5096167;28;20534;-63
2021/07/27 12:31:20;;;;;;;7.33;6.53;;;29.00;84.50;;;;;;5095926;28;20518;-62
2021/07/27 12:33:47;;;;;;;4.50;4.10;;;29.00;83.70;;;;;;5096181;28;20526;-62
2021/07/27 12:36:15;;;;;;;5.07;4.70;;;29.00;83.60;;;;;;5095777;28;20510;-62
2021/07/27 12:38:42;;;;;;;5.33;4.93;;;28.90;83.20;;;;;;5096237;28;20465;-62
2021/07/27 12:41:09;;;;;;;4.77;4.40;;;28.90;84.30;;;;;;5095600;28;20473;-62
2021/07/27 12:43:36;;;;;;;5.17;4.77;;;28.80;85.20;;;;;;5096023;28;20457;-62
2021/07/27 12:46:03;;;;;;;5.27;4.87;;;28.80;83.50;;;;;;5096094;28;20549;-62
2021/07/27 12:48:32;;;;;;;5.40;4.53;;;28.80;83.80;;;;;;5095285;28;20542;-62
2021/07/27 12:50:58;;;;;;;4.57;4.27;;;28.80;84.90;;;;;;5110216;27;20472;-62
2021/07/27 12:53:28;;;;;;;3.40;3.20;;;28.70;85.40;;;;;;5115792;27;21412;-62
2021/07/27 12:55:57;;;;;;;4.53;3.60;;;28.70;85.00;;;;;;5116220;27;20809;-61
2021/07/27 12:58:24;;;;;;;3.50;3.30;;;28.70;84.20;;;;;;5115586;27;21011;-62
2021/07/27 13:00:51;;;;;;;6.00;5.40;;;28.70;83.80;;;;;;5116092;27;20464;-62
2021/07/27 13:03:18;;;;;;;7.67;7.07;;;28.80;84.70;;;;;;5115739;27;20942;-63
2021/07/27 13:05:46;;;;;;;5.23;4.93;;;28.80;86.10;;;;;;5115872;27;20475;-63